EDT,Max TemperatureF,Mean TemperatureF,Min TemperatureF,Max Dew PointF,MeanDew PointF,Min DewpointF,Max Humidity, Mean Humidity, Min Humidity, Max Sea Level PressureIn, Mean Sea Level PressureIn, Min Sea Level PressureIn, Max VisibilityMiles, Mean VisibilityMiles, Min VisibilityMiles, Max Wind SpeedMPH, Mean Wind SpeedMPH, Max Gust SpeedMPH,PrecipitationIn, CloudCover, Events, WindDirDegrees
2012-4-1,84,78,72,70,68,64,90,74,58,29.98,29.93,29.90,10,9,6,9,4,13,0.00,0,,295
2012-4-2,86,79,71,70,66,64,79,67,55,29.96,29.92,29.87,10,10,10,9,3,13,0.00,1,,11
2012-4-3,87,79,70,71,68,66,90,74,58,29.99,29.95,29.91,10,10,8,10,5,16,0.00,0,,112
2012-4-4,86,82,77,69,67,64,74,63,51,29.98,29.92,29.86,10,10,10,13,8,18,0.00,0,,142
2012-4-5,87,78,69,72,68,63,84,70,55,29.93,29.87,29.81,10,7,1,16,8,26,1.38,4,Rain-Thunderstorm,234
2012-4-6,88,83,77,73,71,67,79,69,59,29.92,29.86,29.79,10,10,5,20,10,30,0.01,4,Rain-Thunderstorm,265
2012-4-7,84,78,72,68,65,60,84,66,47,30.06,30.00,29.92,10,10,9,22,12,26,T,3,,50
2012-4-8,83,79,74,65,61,59,64,57,49,30.12,30.08,30.05,10,10,10,21,12,28,0.00,3,Rain,74
2012-4-9,83,76,69,60,58,57,66,55,43,30.09,30.04,30.00,10,10,10,15,7,17,0.00,0,,75
2012-4-10,84,77,69,62,59,56,73,58,43,30.08,30.04,30.00,10,10,10,13,5,16,0.00,1,,88
2012-4-11,84,76,68,62,60,58,70,57,44,30.09,30.04,30.01,10,10,10,9,4,13,0.00,0,,323
2012-4-12,84,79,74,64,61,57,69,56,43,30.08,30.04,30.00,10,10,10,10,6,15,0.00,1,,323
2012-4-13,87,79,70,65,63,62,73,61,48,30.11,30.06,30.00,10,10,8,7,2,10,0.00,0,,290
2012-4-14,85,79,72,71,66,61,74,64,54,30.17,30.13,30.06,10,9,0,21,11,30,0.56,5,Fog-Rain,105
2012-4-15,83,79,74,62,60,55,64,53,42,30.18,30.14,30.11,10,10,10,17,13,28,0.00,3,,97
2012-4-16,85,81,76,65,61,56,64,54,43,30.17,30.12,30.08,10,10,10,18,13,29,0.00,5,,96
2012-4-17,84,80,76,64,62,60,64,56,47,30.15,30.10,30.06,10,10,8,16,11,26,0.00,3,,95
2012-4-18,85,81,76,67,65,64,69,62,55,30.07,30.03,29.98,10,10,10,15,8,21,0.00,3,,121
2012-4-19,86,81,76,70,67,65,71,65,58,30.01,29.96,29.91,10,9,2,13,5,22,0.06,2,Rain,148
2012-4-20,87,83,78,70,68,66,71,63,55,29.94,29.90,29.85,10,10,10,12,7,20,T,2,,149
2012-4-21,79,74,69,72,69,64,100,87,74,29.89,29.81,29.68,10,7,1,20,12,28,2.62,7,Rain-Thunderstorm,92
2012-4-22,84,79,74,71,65,59,87,67,46,29.81,29.70,29.64,10,9,1,23,14,36,0.05,2,Rain,262
2012-4-23,82,78,73,61,56,52,64,53,42,29.95,29.87,29.81,10,10,10,18,10,28,0.00,2,,315
2012-4-24,76,71,66,55,51,48,63,51,38,30.06,30.00,29.93,10,10,10,15,9,22,0.00,2,,339
2012-4-25,81,73,65,58,53,49,63,52,40,30.14,30.09,30.04,10,10,10,15,10,20,0.00,0,,46
2012-4-26,82,77,72,61,59,57,64,55,45,30.14,30.10,30.06,10,10,10,15,8,18,0.00,2,,89
2012-4-27,84,79,74,72,68,63,79,71,63,30.11,30.06,30.03,10,10,9,20,9,24,T,3,Rain,67
2012-4-28,81,76,71,72,69,65,93,78,62,30.07,30.03,29.99,10,10,6,24,10,30,0.08,4,Rain,81
2012-4-29,79,74,69,73,70,68,100,87,74,30.03,29.99,29.94,10,7,1,21,10,28,3.54,7,Rain,65
2012-4-30,77,74,70,73,71,69,100,88,76,29.98,29.94,29.91,10,7,1,24,14,30,1.91,7,Rain,78